Airfield :







YOU CAN JOIN US ON...

 
LOGIN :

Register | Disclaimer

   EN    FR    IT 

 









Legend :    VFR   Marginal VFR   IFR   Intensive IFR   Very Intensive IFR
Visi :
Ceiling :
>= 8 km
>= 3000ft
5 to 8 km
1000 to 3000 ft
1500m to 5 km
500 to 1000 ft
800 to 1500m
200 to 500 ft
< 800m
< 200 ft
Symbols :   Thunderstorms  Fog  Heavy snow  Heavy precipitations  Wind > 20 kt







- Airport Elevation : 9 ft


KPVC - Provincetown Municipal

CURRENT METAR :
  • 230614Z AUTO 07004KT 1 3/4SM BR OVC004 07/07 A2989 RMK AO2 RAE00 PNO $

EXPIRED METARs :
  • 230556Z AUTO 02004KT 5SM -RA BR OVC004 07/07 A2990 RMK AO2 RAB48 CIG 002V007 SLP125 6//// T00670067 10072 20056 56002 PNO $
  • 230522Z AUTO 08003KT 7SM OVC009 07/07 A2991 RMK AO2 PNO $
  • 230515Z AUTO 00000KT 2SM BR FEW001 OVC011 07/07 A2991 RMK AO2 PNO $
  • 230456Z AUTO 00000KT 1SM BR SCT001 OVC011 07/07 A2990 RMK AO2 SLP126 T00670067 401170056 PNO $
  • 230411Z AUTO 00000KT 3/4SM BR OVC001 06/06 A2991 RMK AO2 PNO $
  • 230356Z AUTO 00000KT 4SM BR BKN001 OVC014 06/06 A2991 RMK AO2 SLP127 T00610061 PNO $
  • 230341Z AUTO 00000KT 10SM SCT001 BKN014 OVC050 06/06 A2992 RMK AO2 PNO $
  • 230322Z AUTO VRB03KT 3SM BR BKN001 OVC050 06/06 A2992 RMK AO2 PNO $

TAF N/A
KZBW FIR / North America



MET'MAP, your aeronautical weather chart ! - Copyright ORBIFLY December 2007 - Disclaimer

ORBIFLY MET'MAP TEAM :

Programming & Development : Alexandra Zaïnal
Concept & Development : Baudouin d'Aumeries
Co-Development & Prog : Marc-Olivier Méhu
Technical & hardware support : Manuel Goepfert

Contact : metmap@orbifly.com




SOURCES & CREDITS :

   NOAA